createdAt,value
2018-05-23T05:02:16.108Z,2.57
2018-05-23T05:04:49.390Z,3.17
2018-05-23T05:07:22.649Z,2.97
2018-05-23T05:09:56.015Z,3.47
2018-05-23T05:12:29.203Z,2.90
2018-05-23T05:15:02.505Z,3.00
2018-05-23T05:17:35.755Z,3.57
2018-05-23T05:20:09.640Z,2.90
2018-05-23T05:22:42.900Z,3.13
2018-05-23T05:25:16.181Z,2.50
2018-05-23T05:27:49.436Z,3.20
2018-05-23T05:30:22.712Z,3.47
2018-05-23T05:32:55.970Z,3.33
2018-05-23T05:35:29.245Z,3.60
2018-05-23T05:38:02.506Z,3.53
2018-05-23T05:40:36.254Z,3.90
2018-05-23T05:43:09.444Z,3.33
2018-05-23T05:45:42.827Z,3.27
2018-05-23T05:48:16.075Z,3.53
2018-05-23T05:50:49.352Z,3.03
2018-05-23T05:53:22.604Z,3.50
2018-05-23T05:55:55.992Z,3.10
2018-05-23T05:58:29.252Z,3.20
2018-05-23T06:01:03.313Z,3.80
2018-05-23T06:03:36.572Z,3.17
2018-05-23T06:06:09.869Z,2.77
2018-05-23T06:08:43.127Z,3.63
2018-05-23T06:11:17.172Z,3.53
2018-05-23T06:13:50.440Z,4.00
2018-05-23T06:16:24.477Z,2.97
2018-05-23T06:18:57.728Z,3.50
2018-05-23T06:21:31.009Z,2.87
2018-05-23T06:24:04.263Z,3.07
2018-05-23T06:26:37.543Z,2.90
2018-05-23T06:29:10.804Z,2.50
2018-05-23T06:31:44.098Z,3.93
2018-05-23T06:34:17.365Z,3.00
2018-05-23T06:36:50.648Z,3.57
2018-05-23T06:39:23.896Z,3.37
2018-05-23T06:41:57.175Z,3.67
2018-05-23T06:44:30.453Z,3.10
2018-05-23T06:47:03.728Z,3.60
2018-05-23T06:49:36.985Z,4.43
2018-05-23T06:52:11.043Z,3.57
2018-05-23T06:54:44.310Z,4.23
2018-05-23T06:57:17.602Z,4.03
2018-05-23T06:59:50.857Z,4.07
2018-05-23T07:02:24.129Z,4.03
2018-05-23T07:04:57.387Z,3.80
2018-05-23T07:07:31.084Z,4.57
2018-05-23T07:10:04.353Z,4.43
2018-05-23T07:12:38.389Z,4.47
2018-05-23T07:15:11.648Z,5.33
2018-05-23T07:17:45.704Z,5.40
2018-05-23T07:20:18.990Z,5.30
2018-05-23T07:22:52.285Z,4.10
2018-05-23T07:25:26.303Z,5.83
2018-05-23T07:27:59.580Z,5.97
2018-05-23T07:30:33.608Z,5.90
2018-05-23T07:33:06.888Z,4.93
2018-05-23T07:35:40.148Z,5.03
2018-05-23T07:38:13.420Z,5.63
2018-05-23T07:40:46.676Z,4.47
2018-05-23T07:43:19.944Z,4.37
2018-05-23T07:45:54.029Z,3.17
2018-05-23T07:48:27.243Z,4.67
2018-05-23T07:51:01.264Z,5.00
2018-05-23T07:53:34.540Z,5.50
2018-05-23T07:56:07.824Z,5.23
2018-05-23T07:58:41.097Z,5.23
2018-05-23T08:01:14.431Z,6.03
2018-05-23T08:03:47.632Z,5.53
2018-05-23T08:06:21.653Z,6.10
2018-05-23T08:08:55.692Z,5.40
2018-05-23T08:11:28.968Z,6.50
2018-05-23T08:14:02.244Z,5.80
2018-05-23T08:16:35.527Z,5.07
2018-05-23T08:19:09.548Z,5.27
2018-05-23T08:21:43.628Z,5.57
2018-05-23T08:24:16.936Z,6.83
2018-05-23T08:26:50.182Z,5.67
2018-05-23T08:29:23.440Z,5.90
2018-05-23T08:32:02.797Z,7.03
2018-05-23T08:34:40.116Z,5.00
2018-05-23T08:37:17.727Z,7.30
2018-05-23T08:39:50.983Z,6.50
2018-05-23T08:42:27.225Z,5.93
2018-05-23T08:45:01.280Z,5.43
2018-05-23T08:47:34.643Z,6.30
2018-05-23T08:50:07.900Z,5.43
2018-05-23T08:52:41.169Z,5.03
2018-05-23T08:55:14.425Z,7.40
2018-05-23T08:57:47.698Z,6.90
2018-05-23T09:00:20.953Z,7.47
2018-05-23T09:02:54.229Z,7.83
2018-05-23T09:05:27.481Z,6.40
2018-05-23T09:08:01.522Z,6.97
2018-05-23T09:10:34.772Z,5.63
2018-05-23T09:13:08.053Z,5.83
2018-05-23T09:15:41.396Z,6.53
2018-05-23T09:18:14.583Z,6.20
2018-05-23T09:20:47.844Z,7.53
2018-05-23T09:23:21.122Z,5.37
2018-05-23T09:25:54.374Z,6.90
2018-05-23T09:28:27.644Z,7.33
2018-05-23T09:31:01.680Z,7.30
2018-05-23T09:33:34.951Z,6.97
2018-05-23T09:36:08.968Z,6.03
2018-05-23T09:38:43.016Z,7.27
2018-05-23T09:41:16.267Z,6.77
2018-05-23T09:43:50.309Z,5.60
2018-05-23T09:46:23.567Z,6.77
2018-05-23T09:48:57.612Z,6.70
2018-05-23T09:51:30.865Z,7.40
2018-05-23T09:54:04.143Z,6.03
2018-05-23T09:56:37.416Z,5.27
2018-05-23T09:59:10.685Z,5.17
2018-05-23T10:01:43.937Z,6.57
2018-05-23T10:04:17.240Z,6.40
2018-05-23T10:06:50.496Z,5.50
2018-05-23T10:09:23.766Z,5.60
2018-05-23T10:11:57.033Z,5.70
2018-05-23T10:14:31.073Z,6.20
2018-05-23T10:17:04.341Z,5.63
2018-05-23T10:19:37.611Z,4.53
2018-05-23T10:22:10.872Z,3.40
2018-05-23T10:24:44.148Z,4.23
2018-05-23T10:27:17.403Z,5.83
2018-05-23T10:29:51.458Z,6.83
2018-05-23T10:32:24.707Z,5.70
2018-05-23T10:34:58.001Z,5.03
2018-05-23T10:37:31.267Z,4.70
2018-05-23T10:40:04.538Z,4.10
2018-05-23T10:42:37.796Z,3.63
2018-05-23T10:45:11.073Z,3.80
2018-05-23T10:47:44.333Z,4.27
2018-05-23T10:50:18.074Z,3.33
2018-05-23T10:52:51.332Z,3.40
2018-05-23T10:55:24.605Z,4.83
2018-05-23T10:57:57.866Z,5.83
2018-05-23T11:00:31.908Z,6.47
2018-05-23T11:03:05.175Z,5.83
2018-05-23T11:05:39.252Z,6.63
2018-05-23T11:08:12.492Z,5.17
2018-05-23T11:10:45.760Z,5.27
2018-05-23T11:13:19.037Z,5.30
2018-05-23T11:15:52.296Z,5.70
2018-05-23T11:18:25.577Z,6.30
2018-05-23T11:20:58.832Z,5.67
2018-05-23T11:23:32.101Z,4.60
2018-05-23T11:26:05.365Z,4.30
2018-05-23T11:28:39.382Z,4.57
2018-05-23T11:31:12.628Z,4.03
2018-05-23T11:33:45.892Z,3.77
2018-05-23T11:36:19.151Z,4.80
2018-05-23T11:38:52.433Z,4.70
2018-05-23T11:41:26.453Z,5.27
2018-05-23T11:43:59.725Z,4.20
2018-05-23T11:46:32.996Z,4.57
2018-05-23T11:49:06.256Z,5.10
2018-05-23T11:51:39.516Z,3.87
2018-05-23T11:54:12.832Z,5.03
2018-05-23T11:56:46.084Z,4.23
2018-05-23T11:59:19.384Z,4.30
2018-05-23T12:01:52.700Z,3.50
2018-05-23T12:04:25.918Z,3.70
2018-05-23T12:06:59.182Z,4.57
2018-05-23T12:09:32.464Z,4.30
2018-05-23T12:12:05.721Z,3.03
2018-05-23T12:14:38.991Z,3.83
2018-05-23T12:17:12.251Z,4.33
2018-05-23T12:19:45.665Z,3.93
2018-05-23T12:22:18.803Z,4.17
2018-05-23T12:24:52.072Z,3.93
2018-05-23T12:27:25.322Z,3.30
2018-05-23T12:29:58.616Z,3.33
2018-05-23T12:32:32.641Z,3.03
2018-05-23T12:35:06.685Z,3.13
2018-05-23T12:37:39.952Z,2.67
2018-05-23T12:40:13.232Z,3.80
2018-05-23T12:42:47.251Z,3.97
2018-05-23T12:45:20.628Z,3.87
2018-05-23T12:47:53.884Z,5.23
2018-05-23T12:50:27.168Z,3.87
2018-05-23T12:53:00.444Z,3.40
2018-05-23T12:55:33.724Z,4.90
2018-05-23T12:58:06.992Z,3.23
2018-05-23T13:00:40.261Z,3.53
2018-05-23T13:03:13.517Z,2.83
2018-05-23T13:05:46.913Z,2.17
2018-05-23T13:08:20.168Z,2.63
2018-05-23T13:10:53.490Z,2.30
2018-05-23T13:13:26.743Z,2.40
2018-05-23T13:16:00.024Z,2.50
2018-05-23T13:18:33.291Z,2.70
2018-05-23T13:21:06.561Z,2.40
2018-05-23T13:23:40.589Z,2.83
2018-05-23T13:26:13.864Z,3.27
2018-05-23T13:28:47.129Z,2.83
2018-05-23T13:31:20.397Z,3.37
2018-05-23T13:33:53.662Z,2.80
2018-05-23T13:36:26.933Z,3.00
2018-05-23T13:39:01.033Z,3.37
2018-05-23T13:41:34.229Z,3.10
2018-05-23T13:44:08.254Z,3.37
2018-05-23T13:46:41.528Z,2.60
2018-05-23T13:49:14.789Z,4.37
2018-05-23T13:51:48.083Z,3.13
2018-05-23T13:54:21.340Z,2.93
2018-05-23T13:56:54.620Z,3.50
2018-05-23T13:59:28.649Z,2.73
2018-05-23T14:02:01.956Z,3.40
2018-05-23T14:04:35.212Z,3.60
2018-05-23T14:07:09.561Z,3.13
2018-05-23T14:09:42.864Z,3.93
2018-05-23T14:12:16.094Z,2.93
2018-05-23T14:14:49.348Z,2.67
2018-05-23T14:17:22.621Z,3.03
2018-05-23T14:19:56.640Z,2.70
2018-05-23T14:22:29.912Z,2.93
2018-05-23T14:25:03.951Z,3.00
2018-05-23T14:27:38.096Z,2.23
2018-05-23T14:30:11.350Z,2.40
2018-05-23T14:32:45.496Z,2.17
2018-05-23T14:35:18.769Z,2.87
2018-05-23T14:37:52.046Z,2.40
2018-05-23T14:40:26.072Z,3.10
2018-05-23T14:42:59.798Z,2.90
2018-05-23T14:45:33.043Z,2.50
2018-05-23T14:48:07.196Z,3.60
2018-05-23T14:50:40.461Z,4.10
2018-05-23T14:53:14.624Z,4.17
2018-05-23T14:55:47.880Z,4.20
2018-05-23T14:58:21.149Z,4.37
2018-05-23T15:00:54.413Z,3.33
2018-05-23T15:03:27.689Z,3.00
2018-05-23T15:06:00.939Z,3.47
2018-05-23T15:08:34.995Z,2.83
2018-05-23T15:11:08.241Z,2.50
2018-05-23T15:13:41.524Z,2.60
2018-05-23T15:16:14.792Z,2.87
2018-05-23T15:18:48.168Z,2.57
2018-05-23T15:21:21.428Z,2.17
2018-05-23T15:23:55.493Z,2.50
2018-05-23T15:26:29.516Z,2.13
2018-05-23T15:29:02.788Z,2.03
2018-05-23T15:31:36.097Z,2.00
2018-05-23T15:34:10.088Z,2.73
2018-05-23T15:36:43.348Z,2.80
2018-05-23T15:39:16.637Z,2.67
2018-05-23T15:41:50.665Z,2.70
2018-05-23T15:44:23.928Z,3.97
2018-05-23T15:46:57.190Z,2.87
2018-05-23T15:49:30.475Z,2.97
2018-05-23T15:52:03.728Z,2.90
2018-05-23T15:54:37.002Z,2.60
2018-05-23T15:57:10.272Z,2.60
2018-05-23T15:59:43.545Z,2.77
2018-05-23T16:02:16.806Z,2.40
2018-05-23T16:04:50.850Z,2.20
2018-05-23T16:07:24.112Z,2.33
2018-05-23T16:09:58.147Z,1.97
2018-05-23T16:12:31.405Z,2.03
2018-05-23T16:15:05.450Z,2.20
2018-05-23T16:17:38.705Z,1.90
2018-05-23T16:20:12.009Z,2.43
2018-05-23T16:22:46.028Z,1.70
2018-05-23T16:25:19.302Z,1.80
2018-05-23T16:27:52.557Z,1.70
2018-05-23T16:30:25.857Z,1.70
2018-05-23T16:32:59.122Z,1.90
2018-05-23T16:35:32.421Z,1.97
2018-05-23T16:38:06.477Z,2.03
2018-05-23T16:40:39.888Z,2.00
2018-05-23T16:43:13.148Z,1.80
2018-05-23T16:45:46.493Z,1.90
2018-05-23T16:48:20.512Z,2.10
2018-05-23T16:50:53.796Z,2.20
2018-05-23T16:53:27.823Z,1.90
2018-05-23T16:56:01.850Z,2.03
2018-05-23T16:58:35.120Z,2.30
2018-05-23T17:01:08.388Z,2.60
2018-05-23T17:03:41.762Z,2.20
2018-05-23T17:06:15.231Z,2.30
2018-05-23T17:08:48.617Z,2.00
2018-05-23T17:11:21.892Z,1.80
2018-05-23T17:13:55.155Z,1.73
2018-05-23T17:16:28.435Z,2.07
2018-05-23T17:19:01.708Z,1.90
2018-05-23T17:21:34.990Z,2.23
2018-05-23T17:24:08.247Z,2.23
2018-05-23T17:26:41.532Z,2.40
2018-05-23T17:29:14.788Z,2.80
2018-05-23T17:31:48.068Z,2.87
2018-05-23T17:34:21.321Z,2.90
2018-05-23T17:36:54.595Z,2.67
2018-05-23T17:39:27.862Z,2.20
2018-05-23T17:42:01.132Z,2.50
2018-05-23T17:44:34.396Z,2.60
2018-05-23T17:47:07.667Z,2.20
2018-05-23T17:49:40.932Z,2.47
2018-05-23T17:52:14.204Z,3.17
2018-05-23T17:54:48.224Z,3.30
2018-05-23T17:57:21.497Z,2.97
2018-05-23T17:59:54.748Z,2.60
2018-05-23T18:02:28.012Z,2.77
2018-05-23T18:05:01.274Z,2.73
2018-05-23T18:07:34.556Z,2.30
2018-05-23T18:10:07.826Z,2.23
2018-05-23T18:12:41.112Z,2.00
2018-05-23T18:15:14.363Z,2.47
2018-05-23T18:17:48.484Z,2.20
2018-05-23T18:20:21.660Z,2.20
2018-05-23T18:22:55.705Z,1.90
2018-05-23T18:25:28.959Z,1.93
2018-05-23T18:28:03.008Z,2.20
2018-05-23T18:30:36.260Z,2.00
2018-05-23T18:33:10.305Z,2.00
2018-05-23T18:35:43.555Z,1.60
2018-05-23T18:38:16.832Z,1.70
2018-05-23T18:40:50.095Z,2.10
2018-05-23T18:43:23.451Z,2.37
2018-05-23T18:45:57.396Z,2.43
2018-05-23T18:48:30.720Z,2.77
2018-05-23T18:51:04.699Z,1.93
2018-05-23T18:53:37.975Z,1.70
2018-05-23T18:56:11.232Z,1.60
2018-05-23T18:58:44.506Z,1.87
2018-05-23T19:01:17.996Z,1.50
2018-05-23T19:03:51.290Z,1.50
2018-05-23T19:06:24.545Z,1.63
2018-05-23T19:08:58.589Z,1.30
2018-05-23T19:11:31.851Z,2.00
2018-05-23T19:14:05.892Z,1.90
2018-05-23T19:16:39.147Z,1.90
2018-05-23T19:19:13.191Z,1.43
2018-05-23T19:21:47.124Z,1.80
2018-05-23T19:24:20.404Z,1.37
2018-05-23T19:26:53.666Z,1.43
2018-05-23T19:29:27.701Z,1.57
2018-05-23T19:32:00.961Z,1.43
2018-05-23T19:34:34.245Z,1.23
2018-05-23T19:37:07.513Z,1.40
2018-05-23T19:39:40.861Z,1.10
2018-05-23T19:42:14.992Z,1.47
2018-05-23T19:44:48.337Z,1.93
2018-05-23T19:47:21.718Z,1.80
2018-05-23T19:49:54.980Z,2.20
2018-05-23T19:52:28.258Z,2.03
2018-05-23T19:55:01.525Z,1.80
2018-05-23T19:57:34.780Z,1.93
2018-05-23T20:00:08.064Z,2.00
2018-05-23T20:02:41.464Z,1.90
2018-05-23T20:05:14.755Z,1.67
2018-05-23T20:07:48.012Z,2.20
2018-05-23T20:10:22.057Z,2.70
2018-05-23T20:12:55.313Z,2.63
2018-05-23T20:15:30.124Z,3.30
2018-05-23T20:18:03.372Z,2.80
2018-05-23T20:20:36.663Z,2.40
2018-05-23T20:23:09.913Z,2.03
2018-05-23T20:25:43.932Z,2.17
2018-05-23T20:28:17.194Z,2.13
2018-05-23T20:30:50.496Z,2.90
2018-05-23T20:33:25.837Z,2.10
2018-05-23T20:35:59.124Z,2.37
2018-05-23T20:38:32.373Z,2.97
2018-05-23T20:41:05.671Z,3.60
2018-05-23T20:43:38.925Z,3.63
2018-05-23T20:46:12.240Z,4.10
2018-05-23T20:48:46.276Z,4.13
2018-05-23T20:51:19.581Z,4.40
2018-05-23T20:53:52.845Z,4.80
2018-05-23T20:56:26.953Z,5.57
2018-05-23T20:59:01.076Z,4.00
2018-05-23T21:01:35.040Z,4.47
2018-05-23T21:04:08.301Z,5.50
2018-05-23T21:06:41.593Z,3.90
2018-05-23T21:09:14.852Z,3.70
2018-05-23T21:11:48.382Z,4.90
2018-05-23T21:14:21.646Z,4.90
2018-05-23T21:16:54.933Z,5.13
2018-05-23T21:19:28.267Z,4.77
2018-05-23T21:22:01.499Z,4.90
2018-05-23T21:24:34.752Z,4.20
2018-05-23T21:27:08.037Z,3.93
2018-05-23T21:29:42.061Z,3.53
2018-05-23T21:32:15.368Z,3.20
2018-05-23T21:34:48.633Z,3.47
2018-05-23T21:37:22.669Z,4.30
2018-05-23T21:39:55.920Z,4.30
2018-05-23T21:42:29.962Z,4.33
2018-05-23T21:45:03.225Z,3.87
2018-05-23T21:47:36.497Z,3.67
2018-05-23T21:50:09.760Z,3.63
2018-05-23T21:52:43.049Z,4.07
2018-05-23T21:55:16.313Z,3.80
2018-05-23T21:57:49.596Z,3.57
2018-05-23T22:00:22.872Z,4.23
2018-05-23T22:03:13.903Z,4.93
2018-05-23T22:05:47.934Z,5.10
2018-05-23T22:08:21.994Z,4.90
2018-05-23T22:10:55.252Z,4.40
2018-05-23T22:13:28.551Z,5.10
2018-05-23T22:16:01.812Z,3.80
2018-05-23T22:18:35.863Z,3.77
2018-05-23T22:21:09.115Z,4.20
2018-05-23T22:23:43.176Z,4.50
2018-05-23T22:26:16.434Z,4.03
2018-05-23T22:28:50.477Z,3.87
